Time;durP1;ratioP1;P1;durP2;ratioP2;P2;SDS_P1;SDS_P2;PMS_P1;PMS_P2;Temp;Humidity;BMP_temperature;BMP_pressure;BME280_temperature;BME280_humidity;BME280_pressure;Samples;Min_cycle;Max_cycle;Signal;HPM_P1;HPM_P2
2023/03/08 00:02:23;;;;;;;16.87;10.67;;;;;;;5.12;100.00;95056.19;4968670;28;102217;-60
2023/03/08 00:04:54;;;;;;;18.17;10.73;;;;;;;5.07;100.00;95067.44;4970973;28;102473;-60
2023/03/08 00:07:22;;;;;;;17.43;11.37;;;;;;;5.11;100.00;95062.47;4981630;28;106704;-60
2023/03/08 00:09:50;;;;;;;17.60;11.13;;;;;;;5.10;100.00;95066.16;4975538;28;102385;-60
2023/03/08 00:12:18;;;;;;;16.97;11.33;;;;;;;5.10;100.00;95058.25;4970933;28;102396;-60
2023/03/08 00:14:45;;;;;;;15.70;9.90;;;;;;;5.07;100.00;95062.19;4968773;28;105330;-60
2023/03/08 00:17:12;;;;;;;13.97;9.97;;;;;;;5.07;100.00;95061.41;4966994;28;101818;-60
2023/03/08 00:19:39;;;;;;;16.47;10.53;;;;;;;5.06;100.00;95063.22;4952364;28;105619;-60
2023/03/08 00:22:06;;;;;;;16.47;11.00;;;;;;;5.02;100.00;95053.44;4953771;28;101791;-60
2023/03/08 00:24:35;;;;;;;14.33;10.07;;;;;;;5.07;100.00;95061.41;4969142;28;105298;-60
2023/03/08 00:27:05;;;;;;;15.97;10.50;;;;;;;5.05;100.00;95055.56;4973830;28;101892;-60
2023/03/08 00:29:33;;;;;;;15.67;10.40;;;;;;;5.03;100.00;95060.31;4988992;28;101888;-60
2023/03/08 00:32:00;;;;;;;17.17;10.47;;;;;;;5.02;100.00;95056.06;4976156;28;105426;-60
2023/03/08 00:34:28;;;;;;;15.47;10.37;;;;;;;4.99;100.00;95056.56;4950290;28;102510;-60
2023/03/08 00:36:55;;;;;;;16.10;11.00;;;;;;;5.02;100.00;95056.06;4959606;28;101895;-60
2023/03/08 00:39:21;;;;;;;14.83;9.50;;;;;;;4.99;100.00;95056.56;4968824;28;105389;-60
2023/03/08 00:41:49;;;;;;;20.27;10.70;;;;;;;5.00;100.00;95058.16;4982142;28;102760;-60
2023/03/08 00:44:17;;;;;;;13.93;9.93;;;;;;;4.99;100.00;95061.81;4988939;28;105307;-60
2023/03/08 00:46:44;;;;;;;14.30;9.67;;;;;;;4.98;100.00;95074.22;4988569;28;105469;-60
2023/03/08 00:49:13;;;;;;;16.03;9.87;;;;;;;4.98;100.00;95065.50;4989245;28;102105;-60
2023/03/08 00:51:40;;;;;;;15.97;10.57;;;;;;;4.97;100.00;95058.66;4989347;28;105561;-60
2023/03/08 00:54:08;;;;;;;16.23;10.97;;;;;;;4.94;100.00;95049.41;4988094;28;105872;-60
2023/03/08 00:56:35;;;;;;;15.97;10.30;;;;;;;4.92;100.00;95050.69;4987166;28;101918;-60
2023/03/08 00:59:04;;;;;;;17.10;10.73;;;;;;;4.89;100.00;95046.72;4988057;28;105335;-60
2023/03/08 01:01:31;;;;;;;16.70;9.93;;;;;;;4.88;100.00;95044.31;4976297;28;105754;-60
2023/03/08 01:03:59;;;;;;;15.50;9.87;;;;;;;4.81;100.00;95041.88;4954854;28;101939;-60
2023/03/08 01:06:26;;;;;;;14.67;10.33;;;;;;;4.77;100.00;95040.81;4953323;28;105334;-60
2023/03/08 01:08:52;;;;;;;15.27;9.70;;;;;;;4.76;100.00;95036.56;4948950;28;102039;-60
2023/03/08 01:11:22;;;;;;;15.93;10.57;;;;;;;4.73;100.00;95025.72;4957552;28;105046;-60
2023/03/08 01:13:50;;;;;;;17.13;10.20;;;;;;;4.74;100.00;95040.50;4948236;28;105364;-60
2023/03/08 01:16:21;;;;;;;16.43;9.90;;;;;;;4.70;100.00;95037.53;4964233;28;102092;-60
2023/03/08 01:18:49;;;;;;;12.90;8.87;;;;;;;4.72;100.00;95035.47;4951103;28;102358;-60
2023/03/08 01:21:16;;;;;;;16.23;9.33;;;;;;;4.67;100.00;95035.41;4985217;28;105489;-60
2023/03/08 01:23:44;;;;;;;15.67;9.77;;;;;;;4.66;100.00;95040.91;4988735;28;102300;-60
2023/03/08 01:26:12;;;;;;;15.30;9.87;;;;;;;4.68;100.00;95036.19;4991301;28;105396;-60
2023/03/08 01:28:40;;;;;;;13.63;9.63;;;;;;;4.69;100.00;95035.19;4988895;28;102169;-60
2023/03/08 01:31:08;;;;;;;15.77;9.97;;;;;;;4.67;100.00;95037.25;4988710;28;105079;-60
2023/03/08 01:33:38;;;;;;;14.73;9.90;;;;;;;4.64;100.00;95032.50;4987432;28;106476;-60
2023/03/08 01:36:06;;;;;;;15.37;9.50;;;;;;;4.66;100.00;95036.47;4966612;28;101895;-60
2023/03/08 01:38:33;;;;;;;13.33;10.00;;;;;;;4.64;100.00;95037.75;4949588;28;105385;-60
2023/03/08 01:41:02;;;;;;;14.63;9.60;;;;;;;4.60;100.00;95021.66;4983970;28;105390;-60
2023/03/08 01:43:31;;;;;;;13.47;9.37;;;;;;;4.62;100.00;95031.91;4975222;28;102017;-60
2023/03/08 01:46:22;;;;;;;15.63;9.73;;;;;;;4.57;100.00;95023.97;4951796;28;105269;-60
2023/03/08 01:49:00;;;;;;;16.70;9.73;;;;;;;4.54;100.00;95029.72;4980647;28;101932;-60
2023/03/08 01:51:33;;;;;;;15.90;10.07;;;;;;;4.54;100.00;95029.72;4979329;28;105753;-60
2023/03/08 01:54:05;;;;;;;16.83;9.87;;;;;;;4.54;100.00;95016.56;4947770;28;105742;-60
2023/03/08 01:56:32;;;;;;;14.83;10.13;;;;;;;4.50;100.00;95016.28;4952881;28;102168;-60
2023/03/08 01:59:00;;;;;;;17.27;10.13;;;;;;;4.51;100.00;95024.94;4948104;28;105437;-60
2023/03/08 02:01:27;;;;;;;18.77;10.60;;;;;;;4.50;100.00;95018.09;4954399;28;103080;-60
2023/03/08 02:04:03;;;;;;;14.57;10.13;;;;;;;4.50;100.00;95020.72;4967818;28;102196;-60
2023/03/08 02:06:31;;;;;;;21.00;10.73;;;;;;;4.57;100.00;95029.22;4964634;28;104870;-60
2023/03/08 02:09:02;;;;;;;16.27;10.13;;;;;;;4.58;100.00;95025.56;4953141;28;106048;-60
2023/03/08 02:11:33;;;;;;;14.77;10.53;;;;;;;4.63;100.00;95025.63;4968176;28;104994;-60
2023/03/08 02:14:02;;;;;;;15.63;10.57;;;;;;;4.57;100.00;95024.78;4990590;28;105455;-60
2023/03/08 02:16:29;;;;;;;18.23;11.87;;;;;;;4.56;100.00;95020.56;4990336;28;101849;-60
2023/03/08 02:18:59;;;;;;;15.40;10.30;;;;;;;4.56;100.00;95019.75;4990916;28;104926;-60
2023/03/08 02:21:30;;;;;;;16.40;10.73;;;;;;;4.52;100.00;95018.63;4989846;28;105475;-60
2023/03/08 02:24:06;;;;;;;14.13;10.20;;;;;;;4.50;100.00;95015.47;4990825;28;101785;-60
2023/03/08 02:26:36;;;;;;;14.67;10.47;;;;;;;4.40;100.00;95016.16;4981613;28;103472;-60
2023/03/08 02:29:05;;;;;;;20.30;11.53;;;;;;;4.39;100.00;95017.19;4970194;28;105241;-60
2023/03/08 02:31:32;;;;;;;14.77;10.43;;;;;;;4.42;100.00;95023.81;4995334;28;101876;-60
2023/03/08 02:33:59;;;;;;;15.73;10.97;;;;;;;4.35;100.00;95017.91;4988319;28;105438;-60
2023/03/08 02:36:27;;;;;;;15.57;11.33;;;;;;;4.36;100.00;95014.25;4990698;28;101880;-60
2023/03/08 02:38:54;;;;;;;17.93;11.63;;;;;;;4.35;100.00;95017.91;4979471;28;105324;-60
2023/03/08 02:41:22;;;;;;;17.20;10.63;;;;;;;4.32;100.00;95005.25;4950677;28;105337;-60
2023/03/08 02:43:49;;;;;;;15.30;10.90;;;;;;;4.33;100.00;95004.22;4964046;28;101879;-60
2023/03/08 02:46:17;;;;;;;18.37;11.17;;;;;;;4.30;100.00;95005.50;4970645;28;105799;-60
2023/03/08 02:48:44;;;;;;;15.63;10.60;;;;;;;4.31;100.00;94995.78;4970132;28;105373;-60
2023/03/08 02:51:12;;;;;;;15.50;10.30;;;;;;;4.22;100.00;94986.72;4970769;28;101952;-60
2023/03/08 02:53:39;;;;;;;16.43;10.93;;;;;;;4.20;100.00;94994.84;4974576;28;102440;-60
2023/03/08 02:56:07;;;;;;;14.73;10.90;;;;;;;4.16;100.00;94982.44;4990282;28;101951;-60
2023/03/08 02:58:36;;;;;;;16.67;10.93;;;;;;;4.24;100.00;94979.38;4990239;28;105380;-60
2023/03/08 03:01:03;;;;;;;20.77;12.00;;;;;;;4.17;100.00;94969.03;4988630;28;105438;-60
2023/03/08 03:03:30;;;;;;;15.53;10.63;;;;;;;4.17;100.00;94970.88;4991971;28;101907;-60
2023/03/08 03:05:57;;;;;;;15.57;10.43;;;;;;;4.14;100.00;94961.63;4989999;28;105332;-60
2023/03/08 03:08:30;;;;;;;15.23;10.77;;;;;;;4.08;100.00;94957.34;4989873;28;105414;-60
2023/03/08 03:10:57;;;;;;;15.63;10.67;;;;;;;4.11;100.00;94963.97;4991346;28;101863;-60
2023/03/08 03:13:23;;;;;;;15.73;10.47;;;;;;;4.07;100.00;94965.47;4977811;28;105468;-60
2023/03/08 03:15:53;;;;;;;17.07;11.07;;;;;;;4.03;100.00;94967.00;4967402;28;105117;-60
2023/03/08 03:18:20;;;;;;;16.10;10.53;;;;;;;3.96;100.00;94967.19;4955685;28;104896;-60
2023/03/08 03:20:48;;;;;;;16.17;11.00;;;;;;;4.01;100.00;94969.09;4949020;28;104960;-60
2023/03/08 03:23:15;;;;;;;16.93;10.93;;;;;;;3.98;100.00;94973.00;4954319;28;101901;-60
2023/03/08 03:25:51;;;;;;;13.37;9.97;;;;;;;3.91;100.00;94977.66;4964192;28;105744;-60
2023/03/08 03:28:20;;;;;;;14.90;10.77;;;;;;;3.82;100.00;94979.09;4954575;28;105814;-60
2023/03/08 03:30:48;;;;;;;15.57;11.23;;;;;;;3.90;100.00;94978.69;4950234;28;101956;-60
2023/03/08 03:33:17;;;;;;;15.83;10.80;;;;;;;3.87;100.00;94973.91;4962484;28;105266;-60
2023/03/08 03:35:44;;;;;;;14.40;10.60;;;;;;;3.78;100.00;94974.56;4967187;28;103074;-60
2023/03/08 03:38:11;;;;;;;14.93;11.30;;;;;;;3.73;100.00;94975.31;4984418;28;101881;-60
2023/03/08 03:40:39;;;;;;;15.03;11.17;;;;;;;3.69;100.00;94965.50;4988963;28;105175;-60
2023/03/08 03:43:07;;;;;;;14.53;10.23;;;;;;;3.64;100.00;94968.06;4980946;28;101842;-60
2023/03/08 03:45:34;;;;;;;14.30;10.17;;;;;;;3.52;100.00;94972.63;4975793;28;105197;-60
2023/03/08 03:48:01;;;;;;;17.10;11.27;;;;;;;3.53;100.00;94966.31;4988924;28;105355;-60
2023/03/08 03:50:30;;;;;;;14.80;10.40;;;;;;;3.44;100.00;94975.66;4988835;28;101852;-60
2023/03/08 03:53:06;;;;;;;17.53;11.33;;;;;;;3.38;100.00;94966.91;4989438;28;104698;-60
2023/03/08 03:55:33;;;;;;;17.47;11.57;;;;;;;3.28;100.00;94964.13;4988147;28;105339;-60
2023/03/08 03:58:02;;;;;;;16.10;10.60;;;;;;;3.34;100.00;94962.38;4953269;28;101869;-60
2023/03/08 04:00:31;;;;;;;16.17;11.07;;;;;;;3.30;100.00;94962.06;4978614;28;105220;-60
2023/03/08 04:03:09;;;;;;;13.67;10.13;;;;;;;3.10;100.00;94960.94;4969228;28;101909;-60
2023/03/08 04:05:39;;;;;;;17.50;11.53;;;;;;;3.00;100.00;94963.41;4985812;28;105358;-60
2023/03/08 04:08:07;;;;;;;16.23;10.67;;;;;;;3.13;100.00;94956.03;4988735;28;104965;-60
2023/03/08 04:10:36;;;;;;;14.60;11.03;;;;;;;3.24;100.00;94954.34;4986098;28;102391;-60
2023/03/08 04:13:02;;;;;;;14.77;9.97;;;;;;;3.31;100.00;94952.34;4969071;28;105627;-60
2023/03/08 04:15:29;;;;;;;17.13;10.77;;;;;;;3.30;100.00;94950.75;4965757;28;105440;-60
2023/03/08 04:17:59;;;;;;;13.90;10.83;;;;;;;3.24;100.00;94951.72;4949777;28;101875;-60
2023/03/08 04:20:29;;;;;;;15.53;10.70;;;;;;;3.10;100.00;94946.00;4970807;28;104857;-60
2023/03/08 04:23:00;;;;;;;14.60;10.27;;;;;;;2.97;100.00;94945.50;4969009;28;101849;-60
2023/03/08 04:25:33;;;;;;;18.07;12.07;;;;;;;2.33;100.00;94954.63;4988974;28;105004;-60
2023/03/08 04:28:01;;;;;;;14.87;11.27;;;;;;;2.54;100.00;94945.28;4968853;28;105444;-60
2023/03/08 04:30:29;;;;;;;12.47;9.47;;;;;;;2.41;100.00;94945.59;4969167;28;101876;-60
2023/03/08 04:32:56;;;;;;;14.50;10.27;;;;;;;2.24;100.00;94944.75;4969056;28;104538;-60
2023/03/08 04:35:28;;;;;;;17.97;10.27;;;;;;;1.98;100.00;94943.44;4964553;28;104035;-60
2023/03/08 04:37:55;;;;;;;15.33;10.20;;;;;;;2.05;100.00;94940.69;4949428;28;101889;-60
2023/03/08 04:40:26;;;;;;;13.40;9.90;;;;;;;2.03;100.00;94940.91;4963894;28;104994;-60
2023/03/08 04:42:59;;;;;;;15.67;10.10;;;;;;;2.08;100.00;94940.25;4990016;28;105024;-60
2023/03/08 04:45:32;;;;;;;17.87;11.43;;;;;;;1.95;100.00;94941.31;4988489;28;105699;-60
2023/03/08 04:48:03;;;;;;;17.67;11.27;;;;;;;1.78;100.00;94947.50;4987615;28;105695;-60
2023/03/08 04:50:31;;;;;;;19.23;11.33;;;;;;;1.63;100.00;94947.16;4988235;28;102040;-60
2023/03/08 04:52:58;;;;;;;17.53;10.87;;;;;;;1.58;100.00;94942.63;4988102;28;105643;-60
2023/03/08 04:55:27;;;;;;;19.77;11.57;;;;;;;1.78;100.00;94935.19;4987834;28;105209;-60
2023/03/08 04:57:54;;;;;;;18.07;11.50;;;;;;;1.90;100.00;94930.72;4958219;28;101935;-60
2023/03/08 05:00:22;;;;;;;18.70;12.13;;;;;;;1.98;100.00;94921.69;4988477;28;104824;-60
2023/03/08 05:02:50;;;;;;;16.97;12.77;;;;;;;2.07;100.00;94907.19;4985323;28;105127;-60
2023/03/08 05:05:19;;;;;;;18.43;12.13;;;;;;;2.02;100.00;94899.25;4991851;28;101833;-60
2023/03/08 05:07:45;;;;;;;18.00;11.07;;;;;;;2.00;100.00;94898.66;4987279;28;105251;-60
2023/03/08 05:10:12;;;;;;;17.33;11.83;;;;;;;1.84;100.00;94891.53;4988194;28;101891;-60
2023/03/08 05:12:42;;;;;;;23.77;12.67;;;;;;;1.83;100.00;94896.00;4967794;28;105693;-60
2023/03/08 05:15:10;;;;;;;17.80;11.50;;;;;;;1.70;100.00;94884.97;4980210;28;105034;-60
2023/03/08 05:17:37;;;;;;;17.63;11.73;;;;;;;1.44;100.00;94875.00;4986487;28;101891;-60
2023/03/08 05:20:05;;;;;;;16.73;11.97;;;;;;;1.38;100.00;94862.84;4988191;28;104868;-60
2023/03/08 05:22:36;;;;;;;18.53;12.50;;;;;;;1.45;100.00;94864.31;4986673;28;104991;-60
2023/03/08 05:25:04;;;;;;;21.00;12.27;;;;;;;1.33;100.00;94860.13;4987967;28;101821;-60
2023/03/08 05:27:32;;;;;;;17.57;12.40;;;;;;;1.39;100.00;94846.09;4990218;28;105000;-60
2023/03/08 05:30:01;;;;;;;19.93;12.27;;;;;;;1.27;100.00;94848.72;4987969;28;101950;-60
2023/03/08 05:32:31;;;;;;;21.77;13.00;;;;;;;1.24;100.00;94849.19;4976190;28;105047;-60
2023/03/08 05:34:58;;;;;;;17.17;12.13;;;;;;;1.26;100.00;94841.13;4964291;28;105309;-60
2023/03/08 05:37:32;;;;;;;20.57;13.20;;;;;;;1.40;100.00;94837.22;4950950;28;103411;-60
2023/03/08 05:40:04;;;;;;;18.47;12.03;;;;;;;1.36;100.00;94841.31;4968198;28;105194;-60
2023/03/08 05:42:32;;;;;;;17.50;12.10;;;;;;;1.39;100.00;94835.63;4974883;28;104015;-60
2023/03/08 05:45:01;;;;;;;21.73;12.17;;;;;;;1.29;100.00;94836.22;4968795;28;102163;-60
2023/03/08 05:47:32;;;;;;;16.17;11.17;;;;;;;1.10;100.00;94836.59;4948780;28;104848;-60
2023/03/08 05:49:59;;;;;;;16.90;10.73;;;;;;;1.26;100.00;94839.28;4970671;28;105585;-60
2023/03/08 05:52:30;;;;;;;18.80;11.63;;;;;;;1.41;100.00;94833.56;4969077;28;105329;-60
2023/03/08 05:54:58;;;;;;;18.43;12.00;;;;;;;1.39;100.00;94833.81;4966977;28;105052;-60
2023/03/08 05:57:25;;;;;;;20.00;12.30;;;;;;;1.26;100.00;94847.13;4967837;28;101867;-60
2023/03/08 05:59:52;;;;;;;23.20;15.20;;;;;;;1.05;100.00;94847.72;4967773;28;105085;-60
2023/03/08 06:02:23;;;;;;;20.47;12.60;;;;;;;1.29;100.00;94841.47;4967023;28;105090;-60
2023/03/08 06:04:53;;;;;;;20.37;13.77;;;;;;;1.46;100.00;94831.84;4967913;28;102229;-60
2023/03/08 06:07:23;;;;;;;17.70;12.07;;;;;;;1.57;100.00;94832.84;4968285;28;103687;-60
2023/03/08 06:09:55;;;;;;;25.00;13.13;;;;;;;1.50;100.00;94824.31;4988621;28;102775;-60
2023/03/08 06:12:23;;;;;;;22.57;13.60;;;;;;;1.46;100.00;94821.38;4983180;28;105185;-60
2023/03/08 06:14:54;;;;;;;17.70;12.60;;;;;;;1.48;100.00;94823.78;4988382;28;103067;-60
2023/03/08 06:17:25;;;;;;;19.97;11.77;;;;;;;1.61;100.00;94818.25;4982893;28;102080;-60
2023/03/08 06:19:54;;;;;;;17.97;12.47;;;;;;;1.82;100.00;94825.47;4979418;28;104841;-60
2023/03/08 06:22:21;;;;;;;24.50;12.27;;;;;;;2.03;100.00;94820.34;4986854;28;105687;-60
2023/03/08 06:24:49;;;;;;;19.17;12.20;;;;;;;2.20;100.00;94823.00;4967465;28;102149;-60
2023/03/08 06:27:19;;;;;;;18.60;12.57;;;;;;;2.28;100.00;94817.34;4967514;28;104799;-60
2023/03/08 06:29:49;;;;;;;21.63;12.43;;;;;;;2.35;100.00;94810.94;4956050;28;105411;-60
2023/03/08 06:32:17;;;;;;;19.87;12.73;;;;;;;2.46;100.00;94814.53;4951322;28;102093;-60
2023/03/08 06:34:47;;;;;;;17.87;12.37;;;;;;;2.52;100.00;94806.47;4985198;28;105631;-60
2023/03/08 06:37:14;;;;;;;18.23;12.70;;;;;;;2.57;100.00;94798.69;4987260;28;101749;-60
2023/03/08 06:39:41;;;;;;;19.10;12.37;;;;;;;2.54;100.00;94795.75;4972468;28;105762;-60
2023/03/08 06:42:08;;;;;;;19.40;12.87;;;;;;;2.58;100.00;94799.50;4949453;28;102490;-60
2023/03/08 06:44:36;;;;;;;18.80;12.10;;;;;;;2.58;100.00;94796.88;4985430;28;102113;-60
2023/03/08 06:47:03;;;;;;;16.23;11.77;;;;;;;2.69;100.00;94790.75;4972607;28;105566;-60
2023/03/08 06:49:30;;;;;;;18.27;12.03;;;;;;;2.88;100.00;94795.47;4980713;28;105443;-60
2023/03/08 06:51:59;;;;;;;19.87;12.70;;;;;;;2.89;100.00;94794.44;4981543;28;101969;-60
2023/03/08 06:54:26;;;;;;;19.43;12.43;;;;;;;2.86;100.00;94794.13;4989352;28;105279;-60
2023/03/08 06:56:53;;;;;;;18.80;12.93;;;;;;;3.04;100.00;94802.53;4990475;28;101793;-60
2023/03/08 06:59:20;;;;;;;16.40;11.97;;;;;;;3.20;100.00;94793.81;4987619;28;105241;-60
2023/03/08 07:01:47;;;;;;;21.30;12.90;;;;;;;3.23;100.00;94800.41;4990688;28;102611;-60
2023/03/08 07:04:16;;;;;;;20.93;12.73;;;;;;;3.15;100.00;94795.56;4976100;28;101986;-60
2023/03/08 07:06:44;;;;;;;22.03;13.27;;;;;;;3.42;100.00;94796.44;4972039;28;102500;-60
2023/03/08 07:09:13;;;;;;;23.33;13.00;;;;;;;3.62;100.00;94804.56;4988631;28;103152;-60
2023/03/08 07:11:40;;;;;;;19.63;12.10;;;;;;;3.78;100.00;94806.34;4990312;28;101852;-60
2023/03/08 07:14:07;;;;;;;21.67;13.40;;;;;;;3.87;100.00;94807.50;4989863;28;105412;-60
2023/03/08 07:16:33;;;;;;;23.60;13.53;;;;;;;3.98;100.00;94809.97;4994412;28;102573;-60
2023/03/08 07:19:01;;;;;;;19.57;13.47;;;;;;;4.15;100.00;94813.28;4976118;28;102889;-60
2023/03/08 07:21:28;;;;;;;18.50;13.27;;;;;;;4.40;100.00;94816.16;4989215;28;105808;-60
2023/03/08 07:23:56;;;;;;;18.30;13.60;;;;;;;4.58;100.00;94812.38;4989973;28;102048;-60
2023/03/08 07:26:25;;;;;;;16.90;12.37;;;;;;;4.75;100.00;94811.16;4985115;28;102186;-60
2023/03/08 07:28:51;;;;;;;18.83;12.80;;;;;;;4.93;100.00;94804.72;4985110;28;102801;-60
2023/03/08 07:31:18;;;;;;;16.57;12.47;;;;;;;5.06;100.00;94817.44;4988926;28;101875;-60
2023/03/08 07:33:46;;;;;;;19.73;12.87;;;;;;;5.08;100.00;94812.72;4967683;28;105758;-59
2023/03/08 07:36:13;;;;;;;17.27;12.20;;;;;;;5.04;100.00;94812.44;4963712;28;105377;-59
2023/03/08 07:38:40;;;;;;;18.13;12.20;;;;;;;5.35;100.00;94814.19;4980346;28;102594;-59
2023/03/08 07:41:06;;;;;;;17.13;11.90;;;;;;;5.57;100.00;94820.09;4966399;28;104405;-61
2023/03/08 07:43:44;;;;;;;17.13;12.17;;;;;;;5.85;100.00;94817.06;4955343;28;102027;-60
2023/03/08 07:46:19;;;;;;;15.40;10.83;;;;;;;5.81;100.00;94823.13;4950092;28;105178;-60
2023/03/08 07:48:46;;;;;;;17.43;11.63;;;;;;;5.65;100.00;94824.88;4965955;28;102710;-59
2023/03/08 07:51:13;;;;;;;14.90;11.77;;;;;;;5.57;100.00;94821.94;4989659;28;101971;-59
2023/03/08 07:53:55;;;;;;;15.40;10.50;;;;;;;5.60;100.00;94826.69;4970818;28;105245;-56
2023/03/08 07:56:22;;;;;;;16.00;11.60;;;;;;;5.61;100.00;94825.63;4985588;28;105477;-57
2023/03/08 07:58:51;;;;;;;17.17;10.50;;;;;;;5.60;100.00;94818.78;4989576;28;101868;-56
2023/03/08 08:01:17;;;;;;;14.43;10.73;;;;;;;5.79;100.00;94812.78;4980588;28;105514;-56
2023/03/08 08:03:45;;;;;;;15.00;10.77;;;;;;;5.91;100.00;94810.78;4965251;28;101953;-57
2023/03/08 08:06:12;;;;;;;15.37;11.10;;;;;;;6.18;100.00;94805.28;4981045;28;102284;-64
2023/03/08 08:08:39;;;;;;;14.33;10.70;;;;;;;6.28;100.00;94800.81;4978301;28;102995;-61
2023/03/08 08:11:13;;;;;;;15.10;11.00;;;;;;;6.30;100.00;94805.84;4978828;28;101983;-60
2023/03/08 08:14:14;;;;;;;17.53;11.93;;;;;;;6.46;100.00;94816.16;4985786;28;102340;-61
2023/03/08 08:16:40;;;;;;;20.87;13.30;;;;;;;6.49;100.00;94799.00;4983060;28;105037;-60
2023/03/08 08:19:11;;;;;;;19.97;12.50;;;;;;;6.71;100.00;94786.31;4970077;28;102618;-60
2023/03/08 08:21:38;;;;;;;15.77;11.37;;;;;;;6.67;100.00;94791.34;4992614;28;102572;-60
2023/03/08 08:24:05;;;;;;;15.63;11.53;;;;;;;6.82;100.00;94795.84;4982038;28;101980;-60
2023/03/08 08:26:32;;;;;;;13.07;10.87;;;;;;;7.01;100.00;94787.09;4969481;28;105651;-60
2023/03/08 08:28:59;;;;;;;15.17;11.13;;;;;;;7.12;100.00;94787.84;4985393;28;105214;-61
2023/03/08 08:31:30;;;;;;;14.50;10.87;;;;;;;7.08;100.00;94784.16;4990300;28;101745;-60
2023/03/08 08:33:59;;;;;;;15.43;10.83;;;;;;;7.10;100.00;94766.19;4982130;28;105876;-61
2023/03/08 08:36:27;;;;;;;15.73;11.40;;;;;;;7.13;100.00;94760.34;4966761;28;105104;-60
2023/03/08 08:38:54;;;;;;;16.57;11.80;;;;;;;7.43;100.00;94749.72;4967794;28;102858;-60
2023/03/08 08:41:24;;;;;;;17.07;11.83;;;;;;;7.53;100.00;94741.75;4949670;28;104940;-60
2023/03/08 08:44:34;;;;;;;19.00;12.03;;;;;;;7.45;100.00;94737.00;4968361;28;105568;-60
2023/03/08 08:47:04;;;;;;;17.13;11.50;;;;;;;7.95;100.00;94734.09;4969746;28;105181;-60
2023/03/08 08:49:32;;;;;;;14.33;10.83;;;;;;;8.09;100.00;94721.84;4968127;28;105397;-61
2023/03/08 08:51:59;;;;;;;16.33;11.57;;;;;;;8.29;100.00;94719.88;4970257;28;101925;-61
2023/03/08 08:54:32;;;;;;;17.43;11.73;;;;;;;8.32;100.00;94714.03;4969308;28;105171;-60
2023/03/08 08:56:59;;;;;;;16.77;11.00;;;;;;;8.23;100.00;94694.50;4968360;28;105774;-60
2023/03/08 08:59:27;;;;;;;14.03;11.27;;;;;;;8.62;100.00;94687.28;4969028;28;101935;-60
2023/03/08 09:01:54;;;;;;;15.50;11.10;;;;;;;8.63;100.00;94682.78;4968365;28;105385;-60
2023/03/08 09:04:37;;;;;;;18.67;11.53;;;;;;;8.74;100.00;94669.19;4973975;28;105151;-60
2023/03/08 09:07:06;;;;;;;14.93;11.30;;;;;;;8.80;100.00;94654.00;4984815;28;102123;-60
2023/03/08 09:09:33;;;;;;;14.63;10.90;;;;;;;9.03;100.00;94648.72;4988105;28;106071;-60
2023/03/08 09:11:59;;;;;;;14.33;10.50;;;;;;;9.22;100.00;94651.41;4965862;28;102368;-60
2023/03/08 09:14:31;;;;;;;14.03;10.90;;;;;;;8.86;100.00;94644.91;4966901;28;105281;-60
2023/03/08 09:16:58;;;;;;;14.13;10.97;;;;;;;9.15;100.00;94648.28;4967642;28;105330;-61
2023/03/08 09:19:25;;;;;;;18.20;11.73;;;;;;;9.31;97.52;94642.53;4982059;28;101994;-60
2023/03/08 09:21:54;;;;;;;15.40;11.07;;;;;;;9.27;96.14;94627.50;4988028;28;104929;-61
2023/03/08 09:25:13;;;;;;;17.30;11.17;;;;;;;9.49;93.63;94630.38;4973687;28;103944;-61
2023/03/08 09:27:42;;;;;;;15.80;12.20;;;;;;;9.45;98.52;94621.41;4984015;28;101913;-60
2023/03/08 09:30:12;;;;;;;17.37;11.47;;;;;;;9.57;94.32;94611.16;4990911;28;105220;-60
2023/03/08 09:32:39;;;;;;;15.40;11.20;;;;;;;9.56;91.12;94606.94;4988372;28;102027;-61
2023/03/08 09:35:06;;;;;;;15.33;11.13;;;;;;;9.57;92.07;94596.03;4968493;28;105343;-61
2023/03/08 09:37:35;;;;;;;14.90;11.00;;;;;;;9.60;100.00;94586.72;4970183;28;105322;-60
2023/03/08 09:40:08;;;;;;;16.83;11.73;;;;;;;9.16;98.76;94581.72;4978744;28;101880;-60
2023/03/08 09:42:49;;;;;;;15.77;11.30;;;;;;;9.28;98.22;94576.78;4980137;28;105756;-60
2023/03/08 09:45:22;;;;;;;14.50;10.87;;;;;;;9.25;100.00;94568.63;4969061;28;102671;-63
2023/03/08 09:47:54;;;;;;;13.20;11.07;;;;;;;9.39;95.98;94585.41;4968237;28;101896;-60
2023/03/08 09:50:42;;;;;;;13.47;10.33;;;;;;;9.33;91.09;94576.72;4973970;28;105674;-60
2023/03/08 09:53:34;;;;;;;13.73;10.37;;;;;;;9.47;92.26;94552.91;4990875;28;105726;-60
2023/03/08 09:56:04;;;;;;;13.47;10.57;;;;;;;9.53;91.90;94549.91;4983362;28;105081;-61
2023/03/08 09:58:36;;;;;;;14.97;11.73;;;;;;;9.91;86.98;94546.13;4988649;28;102543;-61
2023/03/08 10:01:15;;;;;;;14.83;11.50;;;;;;;9.89;89.36;94536.88;4976808;28;102157;-61
2023/03/08 10:04:16;;;;;;;14.43;11.07;;;;;;;10.42;87.95;94543.44;4985777;28;104784;-60
2023/03/08 10:06:50;;;;;;;19.33;13.03;;;;;;;10.60;88.12;94531.94;4969062;28;102582;-61
2023/03/08 10:09:32;;;;;;;16.03;11.93;;;;;;;10.32;85.00;94530.34;4968020;28;101870;-61
2023/03/08 10:12:10;;;;;;;16.00;12.63;;;;;;;10.62;91.67;94524.44;4968055;28;105554;-61
2023/03/08 10:14:45;;;;;;;16.60;11.73;;;;;;;10.55;86.14;94516.06;4967126;28;105847;-61
2023/03/08 10:17:17;;;;;;;14.27;11.80;;;;;;;10.44;88.85;94507.53;4971377;28;101720;-61
2023/03/08 10:19:52;;;;;;;16.27;11.53;;;;;;;10.42;89.67;94519.53;4970970;28;106043;-61
2023/03/08 10:22:25;;;;;;;14.50;11.60;;;;;;;10.26;83.26;94512.91;4980140;28;101957;-61
2023/03/08 10:24:57;;;;;;;14.83;11.83;;;;;;;10.32;93.99;94509.09;4976537;28;105811;-62
2023/03/08 10:27:27;;;;;;;14.27;10.93;;;;;;;10.48;91.31;94495.19;4969368;28;104949;-61
2023/03/08 10:29:56;;;;;;;15.50;12.10;;;;;;;10.37;86.88;94485.06;4977525;28;101930;-61
2023/03/08 10:32:24;;;;;;;14.10;11.27;;;;;;;10.34;85.05;94485.66;4971044;28;105240;-61
2023/03/08 10:34:51;;;;;;;15.20;11.70;;;;;;;10.52;81.51;94516.69;4980170;28;105032;-62
2023/03/08 10:37:20;;;;;;;13.67;10.90;;;;;;;10.73;80.16;94507.22;4985064;28;101886;-61
2023/03/08 10:39:53;;;;;;;14.27;11.57;;;;;;;10.77;79.21;94492.25;4988107;28;105851;-61
2023/03/08 10:42:25;;;;;;;14.00;11.03;;;;;;;10.85;83.18;94504.84;4990878;28;101843;-61
2023/03/08 10:44:58;;;;;;;15.53;11.43;;;;;;;11.05;80.82;94515.06;4983051;28;102348;-61
2023/03/08 10:47:27;;;;;;;14.87;11.07;;;;;;;10.75;71.95;94518.34;4972102;28;102922;-61
2023/03/08 10:50:13;;;;;;;15.53;11.73;;;;;;;10.91;75.19;94495.69;4986972;28;102264;-61
2023/03/08 10:52:43;;;;;;;14.07;11.37;;;;;;;10.86;80.09;94493.91;4992205;28;103109;-61
2023/03/08 10:55:13;;;;;;;14.97;11.47;;;;;;;10.66;81.97;94488.22;4977601;28;102631;-61
2023/03/08 10:57:48;;;;;;;14.03;11.07;;;;;;;10.57;81.54;94506.72;4987554;28;101918;-61
2023/03/08 11:00:30;;;;;;;13.60;11.10;;;;;;;10.14;84.08;94512.59;4977698;28;105396;-61
2023/03/08 11:03:17;;;;;;;15.40;12.17;;;;;;;9.88;86.03;94514.09;4950783;28;101829;-61
2023/03/08 11:05:58;;;;;;;17.00;12.63;;;;;;;10.22;92.14;94472.06;4982155;28;105556;-61
2023/03/08 11:08:29;;;;;;;14.83;11.33;;;;;;;10.40;89.59;94500.41;4974195;28;105826;-61
2023/03/08 11:11:05;;;;;;;14.87;11.33;;;;;;;10.52;83.13;94503.41;4970210;28;101975;-61
2023/03/08 11:13:37;;;;;;;17.33;11.73;;;;;;;10.22;74.51;94527.84;4976268;28;103436;-61
2023/03/08 11:16:17;;;;;;;14.10;10.27;;;;;;;10.03;76.62;94537.72;4972174;28;102546;-61
2023/03/08 11:18:57;;;;;;;17.03;13.37;;;;;;;9.73;77.17;94556.78;4968152;28;102020;-61
2023/03/08 11:21:32;;;;;;;13.87;11.33;;;;;;;9.55;80.45;94557.59;4955391;28;105519;-61
2023/03/08 11:24:38;;;;;;;16.57;13.10;;;;;;;9.46;82.38;94559.31;4970647;28;105664;-61